sensor_id;sensor_type;location;lat;lon;timestamp;pressure;altitude;pressure_sealevel;temperature;humidity
14120;BME280;7138;49.246;9.100;2023-03-05T00:01:54;99052.69;;;5.41;86.61
14120;BME280;7138;49.246;9.100;2023-03-05T00:06:49;99045.94;;;5.43;86.06
14120;BME280;7138;49.246;9.100;2023-03-05T00:09:15;99049.41;;;5.45;86.06
14120;BME280;7138;49.246;9.100;2023-03-05T00:11:41;99047.84;;;5.52;86.07
14120;BME280;7138;49.246;9.100;2023-03-05T00:14:07;99056.28;;;5.46;86.12
14120;BME280;7138;49.246;9.100;2023-03-05T00:16:33;99054.44;;;5.42;85.57
14120;BME280;7138;49.246;9.100;2023-03-05T00:19:00;99052.53;;;5.35;85.70
14120;BME280;7138;49.246;9.100;2023-03-05T00:21:29;99054.38;;;5.39;85.31
14120;BME280;7138;49.246;9.100;2023-03-05T00:23:57;99052.78;;;5.44;85.82
14120;BME280;7138;49.246;9.100;2023-03-05T00:26:27;99048.44;;;5.40;85.26
14120;BME280;7138;49.246;9.100;2023-03-05T00:28:55;99045.78;;;5.37;85.46
14120;BME280;7138;49.246;9.100;2023-03-05T00:31:26;99050.78;;;5.33;86.02
14120;BME280;7138;49.246;9.100;2023-03-05T00:33:57;99047.66;;;5.44;85.50
14120;BME280;7138;49.246;9.100;2023-03-05T00:36:23;99042.50;;;5.43;85.39
14120;BME280;7138;49.246;9.100;2023-03-05T00:38:50;99038.41;;;5.49;84.66
14120;BME280;7138;49.246;9.100;2023-03-05T00:41:17;99023.97;;;5.53;84.29
14120;BME280;7138;49.246;9.100;2023-03-05T00:43:43;99009.41;;;5.53;84.44
14120;BME280;7138;49.246;9.100;2023-03-05T00:46:09;99030.22;;;5.64;85.00
14120;BME280;7138;49.246;9.100;2023-03-05T00:48:35;99020.84;;;5.66;84.11
14120;BME280;7138;49.246;9.100;2023-03-05T00:51:01;99025.00;;;5.61;84.03
14120;BME280;7138;49.246;9.100;2023-03-05T00:53:27;99023.38;;;5.65;84.42
14120;BME280;7138;49.246;9.100;2023-03-05T00:55:52;99021.75;;;5.68;84.50
14120;BME280;7138;49.246;9.100;2023-03-05T00:58:20;99016.72;;;5.73;84.32
14120;BME280;7138;49.246;9.100;2023-03-05T01:00:46;99018.53;;;5.77;84.50
14120;BME280;7138;49.246;9.100;2023-03-05T01:03:15;99020.22;;;5.76;84.55
14120;BME280;7138;49.246;9.100;2023-03-05T01:05:41;99004.78;;;5.75;84.91
14120;BME280;7138;49.246;9.100;2023-03-05T01:08:07;99011.66;;;5.74;84.45
14120;BME280;7138;49.246;9.100;2023-03-05T01:10:33;99004.56;;;5.66;84.84
14120;BME280;7138;49.246;9.100;2023-03-05T01:12:59;99003.75;;;5.67;84.92
14120;BME280;7138;49.246;9.100;2023-03-05T01:15:27;99001.19;;;5.67;84.85
14120;BME280;7138;49.246;9.100;2023-03-05T01:17:53;99001.09;;;5.62;85.31
14120;BME280;7138;49.246;9.100;2023-03-05T01:20:21;98999.22;;;5.57;85.53
14120;BME280;7138;49.246;9.100;2023-03-05T01:22:48;99000.66;;;5.44;85.73
14120;BME280;7138;49.246;9.100;2023-03-05T01:25:15;98997.25;;;5.45;85.61
14120;BME280;7138;49.246;9.100;2023-03-05T01:27:42;98989.53;;;5.43;85.72
14120;BME280;7138;49.246;9.100;2023-03-05T01:30:09;98988.47;;;5.35;86.30
14120;BME280;7138;49.246;9.100;2023-03-05T01:32:37;98982.38;;;5.30;86.04
14120;BME280;7138;49.246;9.100;2023-03-05T01:35:05;98980.69;;;5.32;86.05
14120;BME280;7138;49.246;9.100;2023-03-05T01:37:31;98984.22;;;5.36;86.07
14120;BME280;7138;49.246;9.100;2023-03-05T01:39:57;98974.75;;;5.33;85.76
14120;BME280;7138;49.246;9.100;2023-03-05T01:42:23;98939.16;;;5.11;85.85
14120;BME280;7138;49.246;9.100;2023-03-05T01:45:07;98967.84;;;5.31;85.83
14120;BME280;7138;49.246;9.100;2023-03-05T01:47:35;98967.84;;;5.31;85.86
14120;BME280;7138;49.246;9.100;2023-03-05T01:50:04;98969.69;;;5.36;86.15
14120;BME280;7138;49.246;9.100;2023-03-05T01:52:33;98974.59;;;5.27;86.04
14120;BME280;7138;49.246;9.100;2023-03-05T01:55:05;98956.56;;;5.23;86.38
14120;BME280;7138;49.246;9.100;2023-03-05T01:57:36;98958.25;;;5.22;86.48
14120;BME280;7138;49.246;9.100;2023-03-05T02:00:13;98960.75;;;5.21;86.83
14120;BME280;7138;49.246;9.100;2023-03-05T02:02:42;98950.50;;;5.19;86.60
14120;BME280;7138;49.246;9.100;2023-03-05T02:05:13;98952.97;;;5.16;86.78
14120;BME280;7138;49.246;9.100;2023-03-05T02:07:42;98954.63;;;5.14;86.37
14120;BME280;7138;49.246;9.100;2023-03-05T02:10:18;98949.56;;;5.17;86.06
14120;BME280;7138;49.246;9.100;2023-03-05T02:12:47;98952.19;;;5.20;86.34
14120;BME280;7138;49.246;9.100;2023-03-05T02:15:14;98949.72;;;5.23;86.26
14120;BME280;7138;49.246;9.100;2023-03-05T02:17:41;98942.50;;;5.07;86.65
14120;BME280;7138;49.246;9.100;2023-03-05T02:20:12;98957.59;;;4.96;86.80
14120;BME280;7138;49.246;9.100;2023-03-05T02:22:40;98946.63;;;5.02;87.21
14120;BME280;7138;49.246;9.100;2023-03-05T02:25:19;98950.13;;;5.04;86.86
14120;BME280;7138;49.246;9.100;2023-03-05T02:27:54;98949.72;;;4.89;87.34
14120;BME280;7138;49.246;9.100;2023-03-05T02:30:21;98946.22;;;4.85;87.79
14120;BME280;7138;49.246;9.100;2023-03-05T02:32:47;98949.03;;;4.96;87.20
14120;BME280;7138;49.246;9.100;2023-03-05T02:35:13;98943.19;;;5.02;86.75
14120;BME280;7138;49.246;9.100;2023-03-05T02:37:40;98949.00;;;4.94;87.21
14120;BME280;7138;49.246;9.100;2023-03-05T02:40:08;98928.69;;;5.02;87.09
14120;BME280;7138;49.246;9.100;2023-03-05T02:42:34;98935.31;;;4.94;87.20
14120;BME280;7138;49.246;9.100;2023-03-05T02:45:01;98932.78;;;4.95;87.04
14120;BME280;7138;49.246;9.100;2023-03-05T02:47:27;98931.19;;;4.99;87.24
14120;BME280;7138;49.246;9.100;2023-03-05T02:49:53;98907.16;;;4.95;87.20
14120;BME280;7138;49.246;9.100;2023-03-05T02:52:19;98920.09;;;5.00;87.16
14120;BME280;7138;49.246;9.100;2023-03-05T02:54:46;98916.00;;;5.07;86.52
14120;BME280;7138;49.246;9.100;2023-03-05T02:57:12;98914.25;;;5.04;87.07
14120;BME280;7138;49.246;9.100;2023-03-05T02:59:38;98913.53;;;5.11;87.22
14120;BME280;7138;49.246;9.100;2023-03-05T03:02:04;98913.38;;;5.05;86.68
14120;BME280;7138;49.246;9.100;2023-03-05T03:04:30;98909.84;;;5.00;86.91
14120;BME280;7138;49.246;9.100;2023-03-05T03:06:55;98907.16;;;4.94;87.29
14120;BME280;7138;49.246;9.100;2023-03-05T03:09:21;98904.66;;;4.97;87.52
14120;BME280;7138;49.246;9.100;2023-03-05T03:11:48;98901.94;;;4.91;87.76
14120;BME280;7138;49.246;9.100;2023-03-05T03:14:14;98895.22;;;4.94;87.60
14120;BME280;7138;49.246;9.100;2023-03-05T03:16:40;98901.06;;;4.90;87.60
14120;BME280;7138;49.246;9.100;2023-03-05T03:19:06;98891.72;;;4.92;87.76
14120;BME280;7138;49.246;9.100;2023-03-05T03:21:32;98889.97;;;4.90;88.04
14120;BME280;7138;49.246;9.100;2023-03-05T03:23:57;98898.50;;;4.90;87.95
14120;BME280;7138;49.246;9.100;2023-03-05T03:26:23;98888.91;;;4.82;88.28
14120;BME280;7138;49.246;9.100;2023-03-05T03:28:50;98880.66;;;4.93;88.13
14120;BME280;7138;49.246;9.100;2023-03-05T03:31:16;98890.72;;;4.86;88.35
14120;BME280;7138;49.246;9.100;2023-03-05T03:33:43;98883.00;;;4.84;88.39
14120;BME280;7138;49.246;9.100;2023-03-05T03:36:09;98881.91;;;4.75;88.83
14120;BME280;7138;49.246;9.100;2023-03-05T03:38:35;98884.34;;;4.70;89.25
14120;BME280;7138;49.246;9.100;2023-03-05T03:41:01;98878.44;;;4.73;88.92
14120;BME280;7138;49.246;9.100;2023-03-05T03:43:26;98877.56;;;4.72;89.14
14120;BME280;7138;49.246;9.100;2023-03-05T03:45:53;98871.41;;;4.66;89.04
14120;BME280;7138;49.246;9.100;2023-03-05T03:48:19;98871.63;;;4.73;89.23
14120;BME280;7138;49.246;9.100;2023-03-05T03:50:45;98861.03;;;4.60;89.76
14120;BME280;7138;49.246;9.100;2023-03-05T03:53:11;98863.78;;;4.67;89.68
14120;BME280;7138;49.246;9.100;2023-03-05T03:55:40;98861.47;;;4.78;89.44
14120;BME280;7138;49.246;9.100;2023-03-05T03:58:07;98844.19;;;4.68;89.41
14120;BME280;7138;49.246;9.100;2023-03-05T04:00:33;98861.19;;;4.66;89.47
14120;BME280;7138;49.246;9.100;2023-03-05T04:03:01;98858.63;;;4.66;89.75
14120;BME280;7138;49.246;9.100;2023-03-05T04:05:26;98866.38;;;4.69;89.76
14120;BME280;7138;49.246;9.100;2023-03-05T04:07:52;98860.47;;;4.71;89.78
14120;BME280;7138;49.246;9.100;2023-03-05T04:10:19;98858.91;;;4.76;89.20
14120;BME280;7138;49.246;9.100;2023-03-05T04:12:45;98855.50;;;4.77;89.55
14120;BME280;7138;49.246;9.100;2023-03-05T04:15:11;98854.59;;;4.75;89.27
14120;BME280;7138;49.246;9.100;2023-03-05T04:17:37;98856.56;;;4.85;89.34
14120;BME280;7138;49.246;9.100;2023-03-05T04:20:06;98849.91;;;4.93;89.05
14120;BME280;7138;49.246;9.100;2023-03-05T04:22:35;98851.75;;;4.99;88.57
14120;BME280;7138;49.246;9.100;2023-03-05T04:25:00;98846.75;;;5.04;88.32
14120;BME280;7138;49.246;9.100;2023-03-05T04:27:31;98849.34;;;5.05;88.47
14120;BME280;7138;49.246;9.100;2023-03-05T04:29:57;98837.50;;;5.10;88.36
14120;BME280;7138;49.246;9.100;2023-03-05T04:32:23;98835.84;;;5.12;87.88
14120;BME280;7138;49.246;9.100;2023-03-05T04:34:53;98839.22;;;5.10;88.04
14120;BME280;7138;49.246;9.100;2023-03-05T04:37:20;98839.88;;;5.03;88.42
14120;BME280;7138;49.246;9.100;2023-03-05T04:39:46;98847.41;;;4.95;88.60
14120;BME280;7138;49.246;9.100;2023-03-05T04:42:11;98845.81;;;5.00;88.43
14120;BME280;7138;49.246;9.100;2023-03-05T04:44:37;98839.00;;;5.01;88.65
14120;BME280;7138;49.246;9.100;2023-03-05T04:47:03;98825.31;;;5.00;88.39
14120;BME280;7138;49.246;9.100;2023-03-05T04:49:29;98839.09;;;5.05;88.08
14120;BME280;7138;49.246;9.100;2023-03-05T04:51:55;98833.13;;;5.06;88.28
14120;BME280;7138;49.246;9.100;2023-03-05T04:54:23;98833.88;;;5.02;88.64
14120;BME280;7138;49.246;9.100;2023-03-05T04:56:49;98829.47;;;4.95;88.89
14120;BME280;7138;49.246;9.100;2023-03-05T04:59:18;98832.94;;;4.97;88.33
14120;BME280;7138;49.246;9.100;2023-03-05T05:01:44;98832.78;;;4.91;88.84
14120;BME280;7138;49.246;9.100;2023-03-05T05:04:10;98831.84;;;4.87;88.75
14120;BME280;7138;49.246;9.100;2023-03-05T05:06:35;98833.44;;;4.82;89.08
14120;BME280;7138;49.246;9.100;2023-03-05T05:09:01;98842.63;;;4.74;89.96
14120;BME280;7138;49.246;9.100;2023-03-05T05:11:29;98836.75;;;4.78;89.54
14120;BME280;7138;49.246;9.100;2023-03-05T05:13:54;98838.66;;;4.87;89.20
14120;BME280;7138;49.246;9.100;2023-03-05T05:16:20;98832.78;;;4.91;88.95
14120;BME280;7138;49.246;9.100;2023-03-05T05:18:46;98825.16;;;4.94;89.07
14120;BME280;7138;49.246;9.100;2023-03-05T05:21:14;98829.34;;;4.89;89.14
14120;BME280;7138;49.246;9.100;2023-03-05T05:23:40;98819.09;;;4.89;89.06
14120;BME280;7138;49.246;9.100;2023-03-05T05:26:07;98821.88;;;4.98;88.78
14120;BME280;7138;49.246;9.100;2023-03-05T05:28:35;98819.31;;;4.98;88.35
14120;BME280;7138;49.246;9.100;2023-03-05T05:31:06;98821.66;;;4.89;89.25
14120;BME280;7138;49.246;9.100;2023-03-05T05:33:32;98822.53;;;4.91;89.34
14120;BME280;7138;49.246;9.100;2023-03-05T05:35:58;98814.72;;;4.85;89.34
14120;BME280;7138;49.246;9.100;2023-03-05T05:38:23;98826.69;;;4.86;89.29
14120;BME280;7138;49.246;9.100;2023-03-05T05:40:49;98815.66;;;4.88;89.22
14120;BME280;7138;49.246;9.100;2023-03-05T05:43:15;98817.13;;;4.79;89.94
14120;BME280;7138;49.246;9.100;2023-03-05T05:45:42;98816.59;;;4.92;89.32
14120;BME280;7138;49.246;9.100;2023-03-05T05:48:08;98821.00;;;4.97;89.27
14120;BME280;7138;49.246;9.100;2023-03-05T05:50:34;98813.22;;;4.94;89.24
14120;BME280;7138;49.246;9.100;2023-03-05T05:53:01;98814.13;;;4.96;89.07
14120;BME280;7138;49.246;9.100;2023-03-05T05:55:27;98820.13;;;4.97;88.78
14120;BME280;7138;49.246;9.100;2023-03-05T05:57:53;98825.16;;;4.94;88.95
14120;BME280;7138;49.246;9.100;2023-03-05T06:00:20;98823.34;;;4.90;89.32
14120;BME280;7138;49.246;9.100;2023-03-05T06:02:47;98834.09;;;4.74;90.08
14120;BME280;7138;49.246;9.100;2023-03-05T06:05:13;98816.84;;;4.67;90.20
14120;BME280;7138;49.246;9.100;2023-03-05T06:07:39;98825.47;;;4.70;90.60
14120;BME280;7138;49.246;9.100;2023-03-05T06:10:08;98824.47;;;4.65;90.93
14120;BME280;7138;49.246;9.100;2023-03-05T06:12:34;98815.88;;;4.62;90.90
14120;BME280;7138;49.246;9.100;2023-03-05T06:15:00;98830.53;;;4.69;90.54
14120;BME280;7138;49.246;9.100;2023-03-05T06:17:27;98827.16;;;4.70;90.39
14120;BME280;7138;49.246;9.100;2023-03-05T06:19:55;98820.28;;;4.69;90.33
14120;BME280;7138;49.246;9.100;2023-03-05T06:22:20;98825.38;;;4.67;90.31
14120;BME280;7138;49.246;9.100;2023-03-05T06:24:46;98823.66;;;4.66;90.54
14120;BME280;7138;49.246;9.100;2023-03-05T06:27:12;98822.13;;;4.74;90.20
14120;BME280;7138;49.246;9.100;2023-03-05T06:29:38;98825.56;;;4.75;90.38
14120;BME280;7138;49.246;9.100;2023-03-05T06:32:04;98818.75;;;4.75;90.26
14120;BME280;7138;49.246;9.100;2023-03-05T06:34:30;98809.50;;;4.82;89.77
14120;BME280;7138;49.246;9.100;2023-03-05T06:36:57;98811.19;;;4.80;89.74
14120;BME280;7138;49.246;9.100;2023-03-05T06:39:23;98816.31;;;4.80;89.86
14120;BME280;7138;49.246;9.100;2023-03-05T06:41:51;98816.31;;;4.81;90.15
14120;BME280;7138;49.246;9.100;2023-03-05T06:44:20;98810.47;;;4.85;90.26
14120;BME280;7138;49.246;9.100;2023-03-05T06:46:46;98812.94;;;4.82;90.40
14120;BME280;7138;49.246;9.100;2023-03-05T06:49:11;98810.53;;;4.88;90.17
14120;BME280;7138;49.246;9.100;2023-03-05T06:51:39;98814.03;;;4.92;90.03
14120;BME280;7138;49.246;9.100;2023-03-05T06:54:09;98815.72;;;4.91;90.97
14120;BME280;7138;49.246;9.100;2023-03-05T06:56:38;98816.53;;;4.90;90.02
14120;BME280;7138;49.246;9.100;2023-03-05T06:59:05;98799.44;;;4.89;89.93
14120;BME280;7138;49.246;9.100;2023-03-05T07:01:31;98816.63;;;4.93;90.07
14120;BME280;7138;49.246;9.100;2023-03-05T07:03:57;98817.72;;;5.05;90.01
14120;BME280;7138;49.246;9.100;2023-03-05T07:06:25;98808.47;;;5.10;89.75
14120;BME280;7138;49.246;9.100;2023-03-05T07:08:55;98812.72;;;5.09;89.76
14120;BME280;7138;49.246;9.100;2023-03-05T07:11:23;98814.53;;;5.15;90.05
14120;BME280;7138;49.246;9.100;2023-03-05T07:13:50;98806.75;;;5.10;89.66
14120;BME280;7138;49.246;9.100;2023-03-05T07:16:18;98814.19;;;5.00;90.23
14120;BME280;7138;49.246;9.100;2023-03-05T07:18:45;98806.63;;;5.04;89.50
14120;BME280;7138;49.246;9.100;2023-03-05T07:21:16;98792.47;;;4.82;89.54
14120;BME280;7138;49.246;9.100;2023-03-05T07:23:42;98809.81;;;4.94;89.50
14120;BME280;7138;49.246;9.100;2023-03-05T07:26:09;98811.63;;;4.98;89.61
14120;BME280;7138;49.246;9.100;2023-03-05T07:28:37;98807.09;;;4.88;89.72
14120;BME280;7138;49.246;9.100;2023-03-05T07:31:06;98801.19;;;4.90;89.74
14120;BME280;7138;49.246;9.100;2023-03-05T07:33:33;98812.28;;;4.91;89.93
14120;BME280;7138;49.246;9.100;2023-03-05T07:36:00;98808.84;;;4.89;90.17
14120;BME280;7138;49.246;9.100;2023-03-05T07:38:29;98791.50;;;4.79;90.23
14120;BME280;7138;49.246;9.100;2023-03-05T07:40:54;98799.63;;;4.97;89.52
14120;BME280;7138;49.246;9.100;2023-03-05T07:43:20;98800.44;;;4.96;89.15
14120;BME280;7138;49.246;9.100;2023-03-05T07:45:47;98803.13;;;5.01;89.51
14120;BME280;7138;49.246;9.100;2023-03-05T07:48:16;98806.34;;;4.92;89.58
14120;BME280;7138;49.246;9.100;2023-03-05T07:50:43;98809.97;;;5.02;89.77
14120;BME280;7138;49.246;9.100;2023-03-05T07:53:09;98801.44;;;5.01;89.58
14120;BME280;7138;49.246;9.100;2023-03-05T07:55:41;98803.00;;;4.94;89.34
14120;BME280;7138;49.246;9.100;2023-03-05T07:58:07;98809.13;;;5.01;89.72
14120;BME280;7138;49.246;9.100;2023-03-05T08:00:33;98807.53;;;5.08;89.41
14120;BME280;7138;49.246;9.100;2023-03-05T08:03:00;98809.41;;;5.13;89.20
14120;BME280;7138;49.246;9.100;2023-03-05T08:05:26;98802.53;;;5.14;89.41
14120;BME280;7138;49.246;9.100;2023-03-05T08:07:52;98801.09;;;5.25;89.26
14120;BME280;7138;49.246;9.100;2023-03-05T08:10:18;98806.38;;;5.31;88.79
14120;BME280;7138;49.246;9.100;2023-03-05T08:12:44;98794.44;;;5.33;88.51
14120;BME280;7138;49.246;9.100;2023-03-05T08:15:10;98798.81;;;5.37;88.90
14120;BME280;7138;49.246;9.100;2023-03-05T08:17:37;98790.25;;;5.36;88.30
14120;BME280;7138;49.246;9.100;2023-03-05T08:20:05;98795.50;;;5.41;88.37
14120;BME280;7138;49.246;9.100;2023-03-05T08:22:35;98795.63;;;5.48;88.62
14120;BME280;7138;49.246;9.100;2023-03-05T08:25:03;98799.75;;;5.42;87.82
14120;BME280;7138;49.246;9.100;2023-03-05T08:27:30;98797.31;;;5.46;88.05
14120;BME280;7138;49.246;9.100;2023-03-05T08:29:56;98792.06;;;5.42;88.02
14120;BME280;7138;49.246;9.100;2023-03-05T08:32:22;98792.13;;;5.45;88.04
14120;BME280;7138;49.246;9.100;2023-03-05T08:34:47;98784.56;;;5.49;88.24
14120;BME280;7138;49.246;9.100;2023-03-05T08:37:14;98786.94;;;5.42;87.91
14120;BME280;7138;49.246;9.100;2023-03-05T08:39:40;98782.75;;;5.45;87.31
14120;BME280;7138;49.246;9.100;2023-03-05T08:42:06;98786.06;;;5.41;87.85
14120;BME280;7138;49.246;9.100;2023-03-05T08:44:32;98784.44;;;5.43;88.03
14120;BME280;7138;49.246;9.100;2023-03-05T08:46:58;98776.72;;;5.43;88.28
14120;BME280;7138;49.246;9.100;2023-03-05T08:49:24;98789.44;;;5.39;87.99
14120;BME280;7138;49.246;9.100;2023-03-05T08:51:50;98787.19;;;5.53;88.33
14120;BME280;7138;49.246;9.100;2023-03-05T08:54:19;98776.22;;;5.61;87.69
14120;BME280;7138;49.246;9.100;2023-03-05T08:56:45;98778.97;;;5.70;87.87
14120;BME280;7138;49.246;9.100;2023-03-05T08:59:11;98782.34;;;5.68;87.71
14120;BME280;7138;49.246;9.100;2023-03-05T09:01:37;98775.78;;;5.80;87.73
14120;BME280;7138;49.246;9.100;2023-03-05T09:04:02;98771.75;;;5.93;87.34
14120;BME280;7138;49.246;9.100;2023-03-05T09:06:28;98773.69;;;6.04;87.26
14120;BME280;7138;49.246;9.100;2023-03-05T09:08:54;98775.38;;;6.04;86.77
14120;BME280;7138;49.246;9.100;2023-03-05T09:11:21;98771.84;;;5.99;86.61
14120;BME280;7138;49.246;9.100;2023-03-05T09:13:47;98768.41;;;5.97;86.59
14120;BME280;7138;49.246;9.100;2023-03-05T09:16:16;98768.50;;;6.03;86.41
14120;BME280;7138;49.246;9.100;2023-03-05T09:18:43;98767.00;;;6.14;86.37
14120;BME280;7138;49.246;9.100;2023-03-05T09:21:12;98766.22;;;6.17;86.55
14120;BME280;7138;49.246;9.100;2023-03-05T09:23:39;98755.13;;;6.21;86.29
14120;BME280;7138;49.246;9.100;2023-03-05T09:26:06;98756.81;;;6.19;86.91
14120;BME280;7138;49.246;9.100;2023-03-05T09:28:35;98751.03;;;6.29;86.69
14120;BME280;7138;49.246;9.100;2023-03-05T09:31:02;98752.69;;;6.27;86.16
14120;BME280;7138;49.246;9.100;2023-03-05T09:33:28;98746.97;;;6.44;86.35
14120;BME280;7138;49.246;9.100;2023-03-05T09:35:54;98739.59;;;6.63;85.86
14120;BME280;7138;49.246;9.100;2023-03-05T09:38:20;98732.94;;;6.78;85.74
14120;BME280;7138;49.246;9.100;2023-03-05T09:40:56;98740.78;;;6.86;84.97
14120;BME280;7138;49.246;9.100;2023-03-05T09:43:40;98735.72;;;6.92;84.70
14120;BME280;7138;49.246;9.100;2023-03-05T09:46:27;98734.94;;;6.96;84.34
14120;BME280;7138;49.246;9.100;2023-03-05T09:49:09;98741.91;;;7.04;85.11
14120;BME280;7138;49.246;9.100;2023-03-05T09:51:40;98731.88;;;7.23;84.48
14120;BME280;7138;49.246;9.100;2023-03-05T09:54:14;98738.84;;;7.31;82.80
14120;BME280;7138;49.246;9.100;2023-03-05T09:56:47;98731.22;;;7.40;84.19
14120;BME280;7138;49.246;9.100;2023-03-05T09:59:26;98721.75;;;7.35;83.89
14120;BME280;7138;49.246;9.100;2023-03-05T10:01:58;98723.53;;;7.40;83.56
14120;BME280;7138;49.246;9.100;2023-03-05T10:04:40;98728.78;;;7.49;82.84
14120;BME280;7138;49.246;9.100;2023-03-05T10:07:15;98720.25;;;7.55;81.63
14120;BME280;7138;49.246;9.100;2023-03-05T10:09:48;98711.78;;;7.62;82.63
14120;BME280;7138;49.246;9.100;2023-03-05T10:12:23;98711.06;;;7.77;82.07
14120;BME280;7138;49.246;9.100;2023-03-05T10:14:54;98710.19;;;7.75;81.13
14120;BME280;7138;49.246;9.100;2023-03-05T10:17:52;98716.28;;;7.83;81.57
14120;BME280;7138;49.246;9.100;2023-03-05T10:20:50;98704.28;;;7.85;80.11
14120;BME280;7138;49.246;9.100;2023-03-05T10:23:29;98700.97;;;7.95;81.51
14120;BME280;7138;49.246;9.100;2023-03-05T10:26:04;98698.50;;;8.07;80.02
14120;BME280;7138;49.246;9.100;2023-03-05T10:28:45;98697.75;;;8.20;79.42
14120;BME280;7138;49.246;9.100;2023-03-05T10:31:32;98704.75;;;8.33;78.79
14120;BME280;7138;49.246;9.100;2023-03-05T10:34:41;98700.56;;;8.44;77.27
14120;BME280;7138;49.246;9.100;2023-03-05T10:37:43;98704.91;;;8.51;77.81
14120;BME280;7138;49.246;9.100;2023-03-05T10:40:23;98691.25;;;8.64;77.46
14120;BME280;7138;49.246;9.100;2023-03-05T10:43:06;98692.19;;;8.74;77.90
14120;BME280;7138;49.246;9.100;2023-03-05T10:45:40;98684.53;;;8.86;76.75
14120;BME280;7138;49.246;9.100;2023-03-05T10:48:26;98689.72;;;8.94;75.48
14120;BME280;7138;49.246;9.100;2023-03-05T10:50:59;98685.44;;;8.93;75.12
14120;BME280;7138;49.246;9.100;2023-03-05T10:53:31;98687.97;;;8.91;73.03
14120;BME280;7138;49.246;9.100;2023-03-05T10:56:01;98681.13;;;8.90;73.60
14120;BME280;7138;49.246;9.100;2023-03-05T10:58:28;98686.19;;;8.79;73.15
14120;BME280;7138;49.246;9.100;2023-03-05T11:01:04;98661.19;;;8.63;72.28
14120;BME280;7138;49.246;9.100;2023-03-05T11:03:51;98683.34;;;8.40;71.38
14120;BME280;7138;49.246;9.100;2023-03-05T11:06:29;98678.91;;;8.25;71.56
14120;BME280;7138;49.246;9.100;2023-03-05T11:08:59;98678.81;;;8.15;72.23
14120;BME280;7138;49.246;9.100;2023-03-05T11:11:39;98672.75;;;8.05;72.77
14120;BME280;7138;49.246;9.100;2023-03-05T11:14:22;98670.13;;;8.01;72.87
14120;BME280;7138;49.246;9.100;2023-03-05T11:16:49;98675.88;;;7.74;73.60
14120;BME280;7138;49.246;9.100;2023-03-05T11:19:24;98678.06;;;7.39;73.43
14120;BME280;7138;49.246;9.100;2023-03-05T11:22:09;98671.19;;;7.35;74.77
14120;BME280;7138;49.246;9.100;2023-03-05T11:24:39;98661.06;;;7.50;76.47
14120;BME280;7138;49.246;9.100;2023-03-05T11:27:24;98656.78;;;7.54;76.53
14120;BME280;7138;49.246;9.100;2023-03-05T11:29:51;98658.47;;;7.52;76.44
14120;BME280;7138;49.246;9.100;2023-03-05T11:32:22;98654.34;;;7.64;76.94
14120;BME280;7138;49.246;9.100;2023-03-05T11:34:50;98642.41;;;7.76;77.13
14120;BME280;7138;49.246;9.100;2023-03-05T11:37:25;98638.25;;;7.87;76.87
14120;BME280;7138;49.246;9.100;2023-03-05T11:40:18;98634.91;;;8.00;76.48
14120;BME280;7138;49.246;9.100;2023-03-05T11:42:54;98632.38;;;8.06;76.58
14120;BME280;7138;49.246;9.100;2023-03-05T11:45:23;98625.34;;;7.85;76.11
14120;BME280;7138;49.246;9.100;2023-03-05T11:47:51;98626.22;;;7.86;76.99
14120;BME280;7138;49.246;9.100;2023-03-05T11:50:22;98623.78;;;8.01;77.50
14120;BME280;7138;49.246;9.100;2023-03-05T11:52:50;98618.66;;;8.04;76.33
14120;BME280;7138;49.246;9.100;2023-03-05T11:55:19;98620.25;;;7.90;75.46
14120;BME280;7138;49.246;9.100;2023-03-05T11:58:00;98620.28;;;7.93;76.98
14120;BME280;7138;49.246;9.100;2023-03-05T12:00:33;98612.63;;;8.03;76.17
14120;BME280;7138;49.246;9.100;2023-03-05T12:03:06;98617.84;;;8.08;76.49
14120;BME280;7138;49.246;9.100;2023-03-05T12:05:41;98612.63;;;7.99;76.26
14120;BME280;7138;49.246;9.100;2023-03-05T12:08:13;98616.88;;;7.97;75.15
14120;BME280;7138;49.246;9.100;2023-03-05T12:10:40;98609.16;;;7.97;75.96
14120;BME280;7138;49.246;9.100;2023-03-05T12:13:15;98603.22;;;8.02;76.33
14120;BME280;7138;49.246;9.100;2023-03-05T12:15:58;98597.09;;;7.91;75.25
14120;BME280;7138;49.246;9.100;2023-03-05T12:18:39;98599.66;;;7.87;74.57
14120;BME280;7138;49.246;9.100;2023-03-05T12:21:22;98597.09;;;7.90;74.50
14120;BME280;7138;49.246;9.100;2023-03-05T12:23:54;98591.94;;;7.87;73.28
14120;BME280;7138;49.246;9.100;2023-03-05T12:26:53;98587.72;;;7.96;73.53
14120;BME280;7138;49.246;9.100;2023-03-05T12:29:39;98585.94;;;7.89;73.65
14120;BME280;7138;49.246;9.100;2023-03-05T12:35:26;98583.84;;;7.49;73.08
14120;BME280;7138;49.246;9.100;2023-03-05T12:38:28;98578.72;;;7.47;74.08
14120;BME280;7138;49.246;9.100;2023-03-05T12:41:40;98569.19;;;7.42;74.69
14120;BME280;7138;49.246;9.100;2023-03-05T12:44:20;98565.75;;;7.38;74.74
14120;BME280;7138;49.246;9.100;2023-03-05T12:47:17;98560.69;;;7.44;74.41
14120;BME280;7138;49.246;9.100;2023-03-05T12:49:46;98555.56;;;7.47;74.70
14120;BME280;7138;49.246;9.100;2023-03-05T12:52:26;98552.09;;;7.45;75.36
14120;BME280;7138;49.246;9.100;2023-03-05T12:55:13;98550.38;;;7.41;74.02
14120;BME280;7138;49.246;9.100;2023-03-05T12:57:43;98555.44;;;7.37;74.97
14120;BME280;7138;49.246;9.100;2023-03-05T13:00:13;98540.97;;;7.48;74.61
14120;BME280;7138;49.246;9.100;2023-03-05T13:02:51;98540.97;;;7.48;74.27
14120;BME280;7138;49.246;9.100;2023-03-05T13:05:26;98537.47;;;7.38;73.83
14120;BME280;7138;49.246;9.100;2023-03-05T13:08:10;98543.19;;;7.10;74.16
14120;BME280;7138;49.246;9.100;2023-03-05T13:10:38;98544.06;;;7.12;75.25
14120;BME280;7138;49.246;9.100;2023-03-05T13:13:04;98538.16;;;7.22;75.00
14120;BME280;7138;49.246;9.100;2023-03-05T13:15:31;98529.56;;;7.19;74.94
14120;BME280;7138;49.246;9.100;2023-03-05T13:17:59;98529.69;;;7.29;74.67
14120;BME280;7138;49.246;9.100;2023-03-05T13:20:35;98533.81;;;7.18;73.89
14120;BME280;7138;49.246;9.100;2023-03-05T13:23:28;98531.28;;;7.20;73.82
14120;BME280;7138;49.246;9.100;2023-03-05T13:26:11;98519.34;;;7.23;74.48
14120;BME280;7138;49.246;9.100;2023-03-05T13:28:40;98523.72;;;7.36;75.06
14120;BME280;7138;49.246;9.100;2023-03-05T13:31:13;98518.72;;;7.53;75.51
14120;BME280;7138;49.246;9.100;2023-03-05T13:33:49;98518.81;;;7.63;74.57
14120;BME280;7138;49.246;9.100;2023-03-05T13:36:18;98517.22;;;7.78;75.26
14120;BME280;7138;49.246;9.100;2023-03-05T13:38:46;98510.44;;;7.92;73.43
14120;BME280;7138;49.246;9.100;2023-03-05T13:41:23;98505.28;;;7.87;72.85
14120;BME280;7138;49.246;9.100;2023-03-05T13:43:52;98509.53;;;7.81;72.85